createdAt,value
2023-03-24T00:01:35.036Z,100218.19
2023-03-24T00:04:01.943Z,100256.59
2023-03-24T00:06:28.790Z,100219.41
2023-03-24T00:08:55.734Z,100216.25
2023-03-24T00:11:22.641Z,100257.13
2023-03-24T00:13:50.919Z,100257.66
2023-03-24T00:16:19.596Z,100264.94
2023-03-24T00:18:50.600Z,100250.47
2023-03-24T00:21:18.562Z,100235.69
2023-03-24T00:23:47.894Z,100253.03
2023-03-24T00:26:15.731Z,100251.38
2023-03-24T00:28:44.189Z,100199.59
2023-03-24T00:31:11.210Z,100230.41
2023-03-24T00:33:38.210Z,100260.22
2023-03-24T00:36:07.038Z,100216.28
2023-03-24T00:38:34.760Z,100210.09
2023-03-24T00:41:02.070Z,100262.19
2023-03-24T00:43:29.466Z,100236.47
2023-03-24T00:46:08.226Z,100239.28
2023-03-24T00:48:35.050Z,100255.09
2023-03-24T00:51:03.039Z,100262.06
2023-03-24T00:53:30.080Z,100242.00
2023-03-24T00:55:57.034Z,100195.25
2023-03-24T00:58:23.837Z,100261.72
2023-03-24T01:00:52.535Z,100247.81
2023-03-24T01:03:22.126Z,100233.84
2023-03-24T01:05:49.128Z,100260.28
2023-03-24T01:08:20.374Z,100250.63
2023-03-24T01:10:57.591Z,100211.75
2023-03-24T01:13:27.060Z,100240.97
2023-03-24T01:15:54.140Z,100207.38
2023-03-24T01:18:21.432Z,100258.81
2023-03-24T01:20:49.310Z,100275.69
2023-03-24T01:23:22.666Z,100256.09
2023-03-24T01:25:50.200Z,100231.91
2023-03-24T01:28:21.793Z,100267.78
2023-03-24T01:30:49.841Z,100257.66
2023-03-24T01:33:16.658Z,100255.84
2023-03-24T01:35:43.645Z,100250.72
2023-03-24T01:38:11.995Z,100244.38
2023-03-24T01:40:40.815Z,100255.03
2023-03-24T01:43:08.986Z,100257.03
2023-03-24T01:45:39.192Z,100265.47
2023-03-24T01:48:14.102Z,100233.66
2023-03-24T01:50:40.906Z,100236.19
2023-03-24T01:53:07.656Z,100270.06
2023-03-24T01:55:34.412Z,100223.91
2023-03-24T01:58:02.141Z,100256.63
2023-03-24T02:00:28.998Z,100239.09
2023-03-24T02:02:58.804Z,100222.84
2023-03-24T02:05:31.851Z,100247.38
2023-03-24T02:08:22.620Z,100233.22
2023-03-24T02:10:49.680Z,100225.56
2023-03-24T02:13:16.489Z,100212.03
2023-03-24T02:16:12.268Z,100230.78
2023-03-24T02:18:46.601Z,100193.91
2023-03-24T02:21:17.027Z,100240.72
2023-03-24T02:24:07.799Z,100238.22
2023-03-24T02:26:58.754Z,100231.75
2023-03-24T02:30:04.333Z,100228.66
2023-03-24T02:33:09.639Z,100235.94
2023-03-24T02:35:59.722Z,100195.25
2023-03-24T02:38:41.421Z,100224.16
2023-03-24T02:41:28.565Z,100221.34
2023-03-24T02:44:35.166Z,100212.59
2023-03-24T02:47:04.013Z,100226.34
2023-03-24T02:49:37.082Z,100228.31
2023-03-24T02:52:23.987Z,100231.66
2023-03-24T02:55:01.067Z,100179.47
2023-03-24T02:57:36.910Z,100226.34
2023-03-24T03:00:28.618Z,100221.22
2023-03-24T03:03:03.061Z,100204.81
2023-03-24T03:05:37.807Z,100231.94
2023-03-24T03:08:06.246Z,100189.13
2023-03-24T03:10:36.039Z,100202.53
2023-03-24T03:13:03.265Z,100234.97
2023-03-24T03:15:33.162Z,100164.63
2023-03-24T03:18:17.986Z,100226.97
2023-03-24T03:20:51.050Z,100213.28
2023-03-24T03:23:21.476Z,100245.97
2023-03-24T03:25:51.148Z,100252.03
2023-03-24T03:28:22.185Z,100275.88
2023-03-24T03:30:53.439Z,100260.72
2023-03-24T03:33:25.450Z,100209.66
2023-03-24T03:36:17.019Z,100247.97
2023-03-24T03:39:06.884Z,100249.78
2023-03-24T03:41:33.578Z,100185.16
2023-03-24T03:44:00.750Z,100199.81
2023-03-24T03:46:27.717Z,100253.25
2023-03-24T03:48:54.520Z,100244.59
2023-03-24T03:51:21.365Z,100209.47
2023-03-24T03:53:56.658Z,100250.84
2023-03-24T03:56:25.989Z,100215.91
2023-03-24T03:58:53.668Z,100217.47
2023-03-24T04:01:21.979Z,100223.91
2023-03-24T04:03:59.424Z,100269.38
2023-03-24T04:06:36.269Z,100270.63
2023-03-24T04:09:15.015Z,100258.03
2023-03-24T04:12:19.265Z,100269.59
2023-03-24T04:14:50.045Z,100269.47
2023-03-24T04:17:25.899Z,100264.19
2023-03-24T04:20:15.938Z,100269.19
2023-03-24T04:23:09.747Z,100271.25
2023-03-24T04:26:01.666Z,100289.75
2023-03-24T04:28:48.258Z,100286.22
2023-03-24T04:31:24.586Z,100298.28
2023-03-24T04:33:53.021Z,100278.81
2023-03-24T04:36:28.293Z,100293.56
2023-03-24T04:38:55.256Z,100295.31
2023-03-24T04:41:22.063Z,100308.94
2023-03-24T04:43:49.116Z,100283.47
2023-03-24T04:46:18.483Z,100309.38
2023-03-24T04:48:48.233Z,100315.22
2023-03-24T04:51:15.566Z,100319.66
2023-03-24T04:53:42.371Z,100244.75
2023-03-24T04:56:30.961Z,100338.09
2023-03-24T04:58:58.816Z,100337.06
2023-03-24T05:01:30.311Z,100260.34
2023-03-24T05:03:58.626Z,100328.22
2023-03-24T05:06:26.047Z,100325.91
2023-03-24T05:08:52.970Z,100345.38
2023-03-24T05:11:20.802Z,100302.00
2023-03-24T05:13:47.770Z,100312.09
2023-03-24T05:16:14.649Z,100339.53
2023-03-24T05:18:41.615Z,100347.63
2023-03-24T05:21:08.360Z,100343.88
2023-03-24T05:23:35.441Z,100358.19
2023-03-24T05:26:02.432Z,100344.94
2023-03-24T05:28:29.273Z,100364.50
2023-03-24T05:30:56.289Z,100377.97
2023-03-24T05:33:23.272Z,100361.25
2023-03-24T05:35:50.043Z,100361.41
2023-03-24T05:38:16.896Z,100370.78
2023-03-24T05:40:43.792Z,100368.28
2023-03-24T05:43:12.363Z,100350.91
2023-03-24T05:45:39.339Z,100391.56
2023-03-24T05:48:06.472Z,100387.59
2023-03-24T05:50:33.685Z,100402.78
2023-03-24T05:53:01.046Z,100400.78
2023-03-24T05:55:28.021Z,100401.94
2023-03-24T05:57:55.786Z,100412.31
2023-03-24T06:00:23.531Z,100421.34
2023-03-24T06:02:50.968Z,100438.41
2023-03-24T06:05:17.988Z,100436.44
2023-03-24T06:07:44.828Z,100406.06
2023-03-24T06:10:11.899Z,100434.16
2023-03-24T06:12:38.898Z,100421.38
2023-03-24T06:15:06.175Z,100420.91
2023-03-24T06:17:33.050Z,100375.41
2023-03-24T06:20:06.121Z,100456.16
2023-03-24T06:22:33.364Z,100478.44
2023-03-24T06:25:00.131Z,100479.88
2023-03-24T06:27:30.345Z,100450.03
2023-03-24T06:29:57.825Z,100402.81
2023-03-24T06:32:25.588Z,100493.53
2023-03-24T06:34:52.925Z,100456.25
2023-03-24T06:37:21.378Z,100500.78
2023-03-24T06:39:48.423Z,100498.00
2023-03-24T06:42:15.306Z,100502.16
2023-03-24T06:44:42.258Z,100504.97
2023-03-24T06:47:08.974Z,100498.81
2023-03-24T06:49:37.279Z,100515.28
2023-03-24T06:52:04.989Z,100515.00
2023-03-24T06:54:31.865Z,100506.94
2023-03-24T06:56:58.740Z,100525.06
2023-03-24T06:59:25.761Z,100539.66
2023-03-24T07:01:53.411Z,100532.06
2023-03-24T07:04:25.849Z,100524.31
2023-03-24T07:07:05.590Z,100532.47
2023-03-24T07:09:40.771Z,100549.53
2023-03-24T07:12:07.660Z,100518.44
2023-03-24T07:14:34.406Z,100545.75
2023-03-24T07:17:02.231Z,100532.47
2023-03-24T07:19:29.072Z,100542.47
2023-03-24T07:21:56.020Z,100565.09
2023-03-24T07:24:23.128Z,100574.41
2023-03-24T07:26:49.918Z,100548.81
2023-03-24T07:29:16.666Z,100589.03
2023-03-24T07:31:43.572Z,100565.59
2023-03-24T07:34:10.460Z,100594.56
2023-03-24T07:36:37.245Z,100578.97
2023-03-24T07:39:05.203Z,100604.31
2023-03-24T07:41:32.763Z,100609.38
2023-03-24T07:43:59.615Z,100606.56
2023-03-24T07:46:26.672Z,100616.63
2023-03-24T07:48:53.471Z,100624.78
2023-03-24T07:51:20.346Z,100611.94
2023-03-24T07:53:47.898Z,100627.03
2023-03-24T07:56:15.999Z,100622.25
2023-03-24T07:58:42.809Z,100635.41
2023-03-24T08:01:13.083Z,100640.91
2023-03-24T08:03:41.115Z,100551.09
2023-03-24T08:06:08.799Z,100644.06
2023-03-24T08:08:35.874Z,100530.34
2023-03-24T08:11:03.651Z,100632.00
2023-03-24T08:13:30.697Z,100664.78
2023-03-24T08:15:57.499Z,100669.44
2023-03-24T08:18:25.316Z,100662.03
2023-03-24T08:20:56.024Z,100662.78
2023-03-24T08:23:22.971Z,100673.97
2023-03-24T08:25:50.327Z,100680.97
2023-03-24T08:28:17.287Z,100687.59
2023-03-24T08:30:44.243Z,100678.38
2023-03-24T08:33:12.696Z,100691.06
2023-03-24T08:35:39.953Z,100699.38
2023-03-24T08:38:08.214Z,100699.41
2023-03-24T08:40:35.859Z,100683.78
2023-03-24T08:43:04.449Z,100626.28
2023-03-24T08:45:32.539Z,100711.56
2023-03-24T08:48:00.543Z,100711.59
2023-03-24T08:50:29.440Z,100693.88
2023-03-24T08:52:56.772Z,100684.38
2023-03-24T08:55:24.051Z,100720.72
2023-03-24T08:57:51.162Z,100720.81
2023-03-24T09:00:18.852Z,100724.81
2023-03-24T09:02:46.806Z,100729.94
2023-03-24T09:05:13.965Z,100707.06
2023-03-24T09:07:40.770Z,100738.09
2023-03-24T09:10:08.839Z,100722.63
2023-03-24T09:12:36.468Z,100722.72
2023-03-24T09:15:03.909Z,100733.72
2023-03-24T09:17:32.689Z,100661.88
2023-03-24T09:20:01.411Z,100699.50
2023-03-24T09:22:29.097Z,100737.41
2023-03-24T09:24:55.910Z,100726.72
2023-03-24T09:27:23.537Z,100759.94
2023-03-24T09:29:50.932Z,100769.88
2023-03-24T09:32:17.795Z,100764.00
2023-03-24T09:34:44.608Z,100773.34
2023-03-24T09:37:11.517Z,100782.97
2023-03-24T09:39:38.698Z,100776.31
2023-03-24T09:42:06.255Z,100786.00
2023-03-24T09:44:44.441Z,100790.00
2023-03-24T09:47:26.381Z,100786.63
2023-03-24T09:49:53.262Z,100804.63
2023-03-24T09:52:23.573Z,100794.28
2023-03-24T09:54:50.300Z,100812.34
2023-03-24T09:57:21.371Z,100797.66
2023-03-24T09:59:48.330Z,100807.19
2023-03-24T10:02:16.839Z,100801.03
2023-03-24T10:04:43.722Z,100804.00
2023-03-24T10:07:30.944Z,100778.19
2023-03-24T10:09:59.607Z,100780.28
2023-03-24T10:12:32.842Z,100823.91
2023-03-24T10:15:27.512Z,100820.16
2023-03-24T10:18:37.255Z,100826.91
2023-03-24T10:21:10.353Z,100814.97
2023-03-24T10:23:46.328Z,100799.41
2023-03-24T10:26:49.798Z,100832.44
2023-03-24T10:29:25.990Z,100836.03
2023-03-24T10:31:57.941Z,100835.22
2023-03-24T10:34:29.283Z,100836.94
2023-03-24T10:36:58.522Z,100797.91
2023-03-24T10:39:38.043Z,100839.44
2023-03-24T10:42:28.858Z,100804.13
2023-03-24T10:44:56.073Z,100855.53
2023-03-24T10:47:27.820Z,100834.34
2023-03-24T10:50:11.944Z,100854.06
2023-03-24T10:52:40.839Z,100860.91
2023-03-24T10:55:08.213Z,100861.13
2023-03-24T10:57:35.253Z,100878.88
2023-03-24T11:00:19.197Z,100881.34
2023-03-24T11:02:46.466Z,100872.50
2023-03-24T11:05:20.719Z,100862.28
2023-03-24T11:07:49.076Z,100844.69
2023-03-24T11:10:19.891Z,100862.66
2023-03-24T11:12:58.128Z,100870.28
2023-03-24T11:15:29.227Z,100879.47
2023-03-24T11:17:57.857Z,100842.13
2023-03-24T11:20:33.341Z,100844.66
2023-03-24T11:23:01.841Z,100896.22
2023-03-24T11:25:34.405Z,100855.16
2023-03-24T11:28:04.311Z,100884.91
2023-03-24T11:30:35.715Z,100868.25
2023-03-24T11:33:04.085Z,100900.81
2023-03-24T11:35:41.378Z,100891.63
2023-03-24T11:38:08.846Z,100914.56
2023-03-24T11:40:36.024Z,100904.28
2023-03-24T11:43:04.357Z,100915.66
2023-03-24T11:45:41.544Z,100888.69
2023-03-24T11:48:19.827Z,100896.59
2023-03-24T11:50:46.585Z,100921.00
2023-03-24T11:53:19.284Z,100904.78
2023-03-24T11:56:08.298Z,100894.31
2023-03-24T11:59:19.789Z,100911.19
2023-03-24T12:02:36.453Z,100912.03
2023-03-24T12:05:23.269Z,100910.94
2023-03-24T12:08:01.358Z,100910.25
2023-03-24T12:10:34.044Z,100926.38
2023-03-24T12:13:22.025Z,100927.94
2023-03-24T12:16:14.525Z,100903.84
2023-03-24T12:18:56.694Z,100907.34
2023-03-24T12:21:26.518Z,100909.19
2023-03-24T12:24:00.142Z,100900.34
2023-03-24T12:26:30.900Z,100871.50
2023-03-24T12:29:16.566Z,100911.50
2023-03-24T12:32:12.462Z,100924.69
2023-03-24T12:35:10.328Z,100935.34
2023-03-24T12:38:02.293Z,100943.34
2023-03-24T12:40:51.594Z,100932.75
2023-03-24T12:43:47.580Z,100924.81
2023-03-24T12:46:20.808Z,100922.13
2023-03-24T12:49:02.841Z,100926.06
2023-03-24T12:51:45.523Z,100923.47
2023-03-24T12:54:37.256Z,100931.94
2023-03-24T12:57:13.340Z,100913.81
2023-03-24T12:59:45.857Z,100882.91
2023-03-24T13:02:35.755Z,100921.63
2023-03-24T13:05:05.801Z,100906.03
2023-03-24T13:07:35.402Z,100926.38
2023-03-24T13:10:14.049Z,100925.00
2023-03-24T13:12:49.867Z,100941.81
2023-03-24T13:15:36.622Z,100905.97
2023-03-24T13:18:09.667Z,100932.03
2023-03-24T13:20:43.960Z,100942.34
2023-03-24T13:23:31.507Z,100936.06
2023-03-24T13:26:06.777Z,100935.06
2023-03-24T13:28:48.858Z,100922.94
2023-03-24T13:31:15.720Z,100899.97
2023-03-24T13:33:44.965Z,100926.16
2023-03-24T13:36:15.082Z,100928.50
2023-03-24T13:38:44.099Z,100927.63
2023-03-24T13:41:14.283Z,100934.03
2023-03-24T13:43:48.149Z,100927.63
2023-03-24T13:46:14.989Z,100927.06
2023-03-24T13:48:43.497Z,100930.91
2023-03-24T13:51:20.348Z,100892.28
2023-03-24T13:53:51.409Z,100934.97
2023-03-24T13:56:32.800Z,100940.75
2023-03-24T13:58:59.558Z,100953.31
2023-03-24T14:01:35.031Z,100890.66
2023-03-24T14:04:20.151Z,100943.00
2023-03-24T14:06:48.717Z,100877.16
2023-03-24T14:09:24.590Z,100947.16
2023-03-24T14:11:57.402Z,100945.50
2023-03-24T14:14:26.020Z,100918.69
2023-03-24T14:17:11.171Z,100949.53
2023-03-24T14:20:02.227Z,100953.72
2023-03-24T14:22:35.508Z,100948.41
2023-03-24T14:25:05.182Z,100921.41
2023-03-24T14:27:41.169Z,100918.59
2023-03-24T14:30:14.101Z,100952.03
2023-03-24T14:32:45.226Z,100926.25
2023-03-24T14:35:27.383Z,100958.41
2023-03-24T14:37:56.536Z,100934.09
2023-03-24T14:40:29.833Z,100968.25
2023-03-24T14:43:02.400Z,100934.91
2023-03-24T14:45:41.020Z,100943.75
2023-03-24T14:48:23.186Z,100906.69
2023-03-24T14:50:50.785Z,100905.84
2023-03-24T14:53:21.200Z,100931.38
2023-03-24T14:55:48.555Z,100875.03
2023-03-24T14:58:30.506Z,100927.88
2023-03-24T15:01:07.060Z,100948.03
2023-03-24T15:03:50.521Z,100928.66
2023-03-24T15:06:19.253Z,100942.31
2023-03-24T15:08:53.256Z,100931.13
2023-03-24T15:11:31.095Z,100840.53
2023-03-24T15:13:59.018Z,100927.47
2023-03-24T15:16:27.999Z,100931.47
2023-03-24T15:19:01.988Z,100920.13
2023-03-24T15:21:36.989Z,100940.09
2023-03-24T15:24:25.080Z,100936.88
2023-03-24T15:26:56.067Z,100940.84
2023-03-24T15:29:23.528Z,100950.81
2023-03-24T15:31:50.498Z,100933.19
2023-03-24T15:34:36.274Z,100926.72
2023-03-24T15:37:05.713Z,100930.38
2023-03-24T15:39:37.485Z,100932.56
2023-03-24T15:42:10.584Z,100923.06
2023-03-24T15:44:38.965Z,100925.25
2023-03-24T15:47:11.528Z,100902.91
2023-03-24T15:49:45.886Z,100908.56
2023-03-24T15:52:26.160Z,100902.56
2023-03-24T15:55:07.557Z,100941.41
2023-03-24T15:57:39.503Z,100906.22
2023-03-24T16:00:12.179Z,100927.03
2023-03-24T16:02:53.724Z,100932.19
2023-03-24T16:05:27.180Z,100930.19
2023-03-24T16:08:08.038Z,100917.78
2023-03-24T16:10:39.696Z,100928.09
2023-03-24T16:13:18.692Z,100893.09
2023-03-24T16:15:56.203Z,100925.28
2023-03-24T16:18:34.399Z,100903.78
2023-03-24T16:21:02.465Z,100924.72
2023-03-24T16:23:30.621Z,100892.09
2023-03-24T16:25:57.552Z,100940.13
2023-03-24T16:28:25.260Z,100921.38
2023-03-24T16:31:03.241Z,100885.25
2023-03-24T16:33:33.221Z,100931.69
2023-03-24T16:36:00.917Z,100926.66
2023-03-24T16:38:27.907Z,100931.13
2023-03-24T16:40:56.281Z,100905.81
2023-03-24T16:43:23.122Z,100884.13
2023-03-24T16:45:50.291Z,100921.09
2023-03-24T16:48:17.651Z,100823.72
2023-03-24T16:50:45.684Z,100885.22
2023-03-24T16:53:12.570Z,100920.22
2023-03-24T16:55:41.463Z,100926.81
2023-03-24T16:58:08.504Z,100931.81
2023-03-24T17:00:37.246Z,100895.25
2023-03-24T17:03:04.898Z,100942.28
2023-03-24T17:05:47.019Z,100926.22
2023-03-24T17:08:14.714Z,100897.44
2023-03-24T17:10:42.286Z,100808.75
2023-03-24T17:13:10.003Z,100911.41
2023-03-24T17:15:36.736Z,100934.81
2023-03-24T17:18:04.462Z,100917.47
2023-03-24T17:20:31.475Z,100913.09
2023-03-24T17:22:58.627Z,100924.00
2023-03-24T17:25:29.339Z,100926.94
2023-03-24T17:27:57.643Z,100948.88
2023-03-24T17:30:26.276Z,100948.25
2023-03-24T17:32:54.816Z,100967.47
2023-03-24T17:35:22.853Z,100963.00
2023-03-24T17:37:49.692Z,100956.56
2023-03-24T17:40:17.851Z,100977.75
2023-03-24T17:42:46.674Z,100948.72
2023-03-24T17:45:15.864Z,100974.13
2023-03-24T17:47:42.759Z,100980.53
2023-03-24T17:50:10.114Z,101029.00
2023-03-24T17:52:41.475Z,101026.28
2023-03-24T17:55:08.710Z,101003.19
2023-03-24T17:57:35.566Z,101027.34
2023-03-24T18:00:02.409Z,100866.38
2023-03-24T18:02:29.261Z,100995.75
2023-03-24T18:04:56.232Z,101013.09
2023-03-24T18:07:23.249Z,101016.13
2023-03-24T18:09:50.280Z,101010.41
2023-03-24T18:12:18.164Z,101000.28
2023-03-24T18:14:45.550Z,101007.03
2023-03-24T18:17:12.552Z,101019.56
2023-03-24T18:19:40.467Z,100952.56
2023-03-24T18:22:07.383Z,101023.25
2023-03-24T18:24:34.422Z,101038.94
2023-03-24T18:27:01.504Z,101032.66
2023-03-24T18:29:28.483Z,101037.75
2023-03-24T18:31:55.242Z,101044.09
2023-03-24T18:34:23.308Z,101048.22
2023-03-24T18:36:50.240Z,101057.81
2023-03-24T18:39:17.637Z,101056.78
2023-03-24T18:41:44.568Z,101065.28
2023-03-24T18:44:12.697Z,101031.41
2023-03-24T18:46:39.651Z,101054.19
2023-03-24T18:49:07.357Z,101044.16
2023-03-24T18:51:35.667Z,101025.72
2023-03-24T18:54:02.610Z,101044.81
2023-03-24T18:56:29.608Z,101032.03
2023-03-24T18:58:56.399Z,101039.91
2023-03-24T19:01:23.375Z,100995.25
2023-03-24T19:03:50.985Z,100996.09
2023-03-24T19:06:18.121Z,101039.50
2023-03-24T19:08:46.259Z,101042.41
2023-03-24T19:11:14.055Z,101029.19
2023-03-24T19:13:41.198Z,101042.19
2023-03-24T19:16:09.165Z,101001.53
2023-03-24T19:18:36.675Z,101047.97
2023-03-24T19:21:04.004Z,101053.97
2023-03-24T19:23:30.971Z,101062.47
2023-03-24T19:25:57.804Z,101071.19
2023-03-24T19:28:27.255Z,101058.28
2023-03-24T19:30:54.038Z,101056.91
2023-03-24T19:33:21.046Z,101060.31
2023-03-24T19:35:51.831Z,101022.28
2023-03-24T19:38:21.268Z,101007.53
2023-03-24T19:40:48.113Z,101066.31
2023-03-24T19:43:14.844Z,101036.47
2023-03-24T19:45:43.143Z,101019.16
2023-03-24T19:48:10.865Z,101057.69
2023-03-24T19:50:37.918Z,101066.69
2023-03-24T19:53:04.787Z,101025.84
2023-03-24T19:55:31.626Z,101071.44
2023-03-24T19:57:59.714Z,101046.00
2023-03-24T20:00:26.633Z,101066.44
2023-03-24T20:02:53.701Z,101059.94
2023-03-24T20:05:20.660Z,101047.16
2023-03-24T20:07:48.066Z,101039.25
2023-03-24T20:10:14.925Z,101032.84
2023-03-24T20:12:41.779Z,101052.66
2023-03-24T20:15:08.916Z,101040.69
2023-03-24T20:17:37.869Z,101054.91
2023-03-24T20:20:07.446Z,101053.81
2023-03-24T20:22:34.842Z,101054.91
2023-03-24T20:25:01.777Z,101049.38
2023-03-24T20:27:28.632Z,101059.19
2023-03-24T20:29:55.525Z,101017.59
2023-03-24T20:32:25.546Z,101061.78
2023-03-24T20:34:52.443Z,101065.69
2023-03-24T20:37:19.152Z,101066.56
2023-03-24T20:39:45.970Z,101056.16
2023-03-24T20:42:12.853Z,101054.75
2023-03-24T20:44:39.673Z,101058.94
2023-03-24T20:47:06.607Z,101067.41
2023-03-24T20:49:33.348Z,101069.38
2023-03-24T20:52:00.222Z,101031.69
2023-03-24T20:54:27.164Z,101022.72
2023-03-24T20:56:54.230Z,101037.78
2023-03-24T20:59:21.858Z,101058.81
2023-03-24T21:01:51.481Z,101070.06
2023-03-24T21:04:19.158Z,101037.06
2023-03-24T21:06:46.155Z,101075.38
2023-03-24T21:09:13.584Z,101073.72
2023-03-24T21:11:40.544Z,101079.09
2023-03-24T21:14:07.361Z,101050.34
2023-03-24T21:16:34.375Z,101089.50
2023-03-24T21:19:01.971Z,101086.16
2023-03-24T21:21:29.269Z,101057.41
2023-03-24T21:23:57.728Z,101092.69
2023-03-24T21:26:25.461Z,101041.53
2023-03-24T21:28:53.100Z,101072.53
2023-03-24T21:31:24.802Z,101046.00
2023-03-24T21:33:51.577Z,101091.31
2023-03-24T21:36:18.422Z,101094.13
2023-03-24T21:38:49.978Z,101100.94
2023-03-24T21:41:17.817Z,101080.16
2023-03-24T21:43:47.008Z,101046.91
2023-03-24T21:46:20.764Z,101076.50
2023-03-24T21:48:51.858Z,101077.56
2023-03-24T21:51:26.311Z,101020.81
2023-03-24T21:53:55.868Z,101087.16
2023-03-24T21:56:23.347Z,101041.22
2023-03-24T21:58:50.180Z,101080.13
2023-03-24T22:01:17.336Z,101082.97
2023-03-24T22:03:44.237Z,101090.28
2023-03-24T22:06:11.860Z,101088.34
2023-03-24T22:08:39.174Z,101091.22
2023-03-24T22:11:06.349Z,101075.56
2023-03-24T22:13:33.807Z,101073.84
2023-03-24T22:16:02.424Z,101097.66
2023-03-24T22:18:30.760Z,101096.00
2023-03-24T22:21:01.287Z,101066.91
2023-03-24T22:23:32.874Z,101109.47
2023-03-24T22:26:10.071Z,101114.78
2023-03-24T22:28:36.838Z,101114.28
2023-03-24T22:31:07.970Z,101117.91
2023-03-24T22:33:35.142Z,101050.47
2023-03-24T22:36:02.383Z,101122.66
2023-03-24T22:38:29.450Z,101123.53
2023-03-24T22:41:00.831Z,101119.00
2023-03-24T22:43:27.981Z,101095.88
2023-03-24T22:45:54.738Z,101117.44
2023-03-24T22:48:21.810Z,101125.81
2023-03-24T22:50:48.830Z,101135.41
2023-03-24T22:53:15.748Z,101142.75
2023-03-24T22:55:44.874Z,101142.50
2023-03-24T22:58:13.375Z,101142.88
2023-03-24T23:00:45.208Z,101145.13
2023-03-24T23:03:12.314Z,101127.88
2023-03-24T23:05:46.028Z,101161.47
2023-03-24T23:08:14.636Z,101166.59
2023-03-24T23:10:42.757Z,101181.19
2023-03-24T23:13:10.645Z,101169.97
2023-03-24T23:15:42.927Z,101164.41
2023-03-24T23:18:11.041Z,101151.81
2023-03-24T23:20:37.883Z,101162.78
2023-03-24T23:23:06.739Z,101144.31
2023-03-24T23:25:34.765Z,101174.00
2023-03-24T23:28:01.657Z,101131.47
2023-03-24T23:30:28.617Z,101176.53
2023-03-24T23:32:57.534Z,101138.13
2023-03-24T23:35:24.432Z,101139.50
2023-03-24T23:37:52.768Z,101134.19
2023-03-24T23:40:19.753Z,101139.47
2023-03-24T23:42:47.328Z,101155.41
2023-03-24T23:45:15.861Z,101059.66
2023-03-24T23:47:43.124Z,101158.75
2023-03-24T23:50:10.745Z,101171.38
2023-03-24T23:52:37.838Z,101151.47
2023-03-24T23:55:05.004Z,101139.09
2023-03-24T23:57:31.897Z,101144.72
